KMIE/MIE METAR and TAF weather

Enter ICAO airport designator
Station Type Date Time Source
KMIE METAR 2019/06/17 12:53 UTC NOAA

KMIE 171253Z 23003KT 10SM OVC007 22/20 A2996 RMK AO2 SLP135 T02220200


Station Type Date Time Source
KMIE Decoded METAR 2019/06/17 12:53 UTC NOAA

MUNCIE DELAWARE JOHNSON, IN, United States (KMIE) 40-14N 85-24W 285M
Jun 17, 2019 - 08:53 AM EDT / 2019.06.17 1253 UTC
Wind: from the SW (230 degrees) at 3 MPH (3 KT):0
Visibility: 10 mile(s):0
Sky conditions: overcast
Temperature: 72.0 F (22.2 C)
Dew Point: 68.0 F (20.0 C)
Relative Humidity: 87%
Pressure (altimeter): 29.96 in. Hg (1014 hPa)
ob: KMIE 171253Z 23003KT 10SM OVC007 22/20 A2996 RMK AO2 SLP135 T02220200
cycle: 13

Station Type Date Time Source
KMIE TAF UTC NOAA

Error!

Example: see airport list